sensor_id;sensor_type;location;lat;lon;timestamp;P1;durP1;ratioP1;P2;durP2;ratioP2
77012;SDS011;67260;53.130;17.982;2023-02-15T00:01:42;103.70;;;39.80;;
77012;SDS011;67260;53.130;17.982;2023-02-15T00:04:09;102.40;;;40.00;;
77012;SDS011;67260;53.130;17.982;2023-02-15T00:06:40;117.30;;;42.60;;
77012;SDS011;67260;53.130;17.982;2023-02-15T00:09:08;109.70;;;43.90;;
77012;SDS011;67260;53.130;17.982;2023-02-15T00:11:36;126.60;;;47.50;;
77012;SDS011;67260;53.130;17.982;2023-02-15T00:14:10;134.90;;;49.80;;
77012;SDS011;67260;53.130;17.982;2023-02-15T00:16:39;131.60;;;50.80;;
77012;SDS011;67260;53.130;17.982;2023-02-15T00:19:07;138.60;;;54.80;;
77012;SDS011;67260;53.130;17.982;2023-02-15T00:21:36;134.70;;;51.30;;
77012;SDS011;67260;53.130;17.982;2023-02-15T00:24:04;128.70;;;49.80;;
77012;SDS011;67260;53.130;17.982;2023-02-15T00:26:33;151.30;;;54.50;;
77012;SDS011;67260;53.130;17.982;2023-02-15T00:29:01;165.20;;;60.90;;
77012;SDS011;67260;53.130;17.982;2023-02-15T00:31:29;144.40;;;56.00;;
77012;SDS011;67260;53.130;17.982;2023-02-15T00:36:30;120.40;;;48.60;;
77012;SDS011;67260;53.130;17.982;2023-02-15T00:38:57;118.60;;;46.00;;
77012;SDS011;67260;53.130;17.982;2023-02-15T00:41:25;117.50;;;44.80;;
77012;SDS011;67260;53.130;17.982;2023-02-15T00:43:51;130.60;;;48.90;;
77012;SDS011;67260;53.130;17.982;2023-02-15T00:46:18;125.60;;;47.70;;
77012;SDS011;67260;53.130;17.982;2023-02-15T00:48:45;135.10;;;49.40;;
77012;SDS011;67260;53.130;17.982;2023-02-15T00:51:11;137.30;;;51.10;;
77012;SDS011;67260;53.130;17.982;2023-02-15T00:53:38;137.80;;;53.00;;
77012;SDS011;67260;53.130;17.982;2023-02-15T00:56:05;153.40;;;55.00;;
77012;SDS011;67260;53.130;17.982;2023-02-15T01:01:03;142.10;;;57.00;;
77012;SDS011;67260;53.130;17.982;2023-02-15T01:03:36;146.50;;;56.20;;
77012;SDS011;67260;53.130;17.982;2023-02-15T01:08:29;139.60;;;51.10;;
77012;SDS011;67260;53.130;17.982;2023-02-15T01:11:02;147.30;;;54.50;;
77012;SDS011;67260;53.130;17.982;2023-02-15T01:13:33;145.20;;;54.20;;
77012;SDS011;67260;53.130;17.982;2023-02-15T01:16:00;137.00;;;50.00;;
77012;SDS011;67260;53.130;17.982;2023-02-15T01:18:28;123.40;;;47.50;;
77012;SDS011;67260;53.130;17.982;2023-02-15T01:23:21;114.40;;;42.30;;
77012;SDS011;67260;53.130;17.982;2023-02-15T01:25:48;122.10;;;45.10;;
77012;SDS011;67260;53.130;17.982;2023-02-15T01:28:15;124.00;;;48.10;;
77012;SDS011;67260;53.130;17.982;2023-02-15T01:30:42;123.20;;;46.50;;
77012;SDS011;67260;53.130;17.982;2023-02-15T01:33:09;135.70;;;53.30;;
77012;SDS011;67260;53.130;17.982;2023-02-15T01:35:44;147.00;;;52.70;;
77012;SDS011;67260;53.130;17.982;2023-02-15T01:38:12;142.00;;;57.90;;
77012;SDS011;67260;53.130;17.982;2023-02-15T01:40:40;146.40;;;55.40;;
77012;SDS011;67260;53.130;17.982;2023-02-15T01:43:10;141.10;;;53.30;;
77012;SDS011;67260;53.130;17.982;2023-02-15T01:45:38;136.40;;;52.40;;
77012;SDS011;67260;53.130;17.982;2023-02-15T01:48:13;153.40;;;55.70;;
77012;SDS011;67260;53.130;17.982;2023-02-15T01:50:43;116.10;;;42.90;;
77012;SDS011;67260;53.130;17.982;2023-02-15T01:56:09;128.10;;;48.10;;
77012;SDS011;67260;53.130;17.982;2023-02-15T01:58:40;118.00;;;47.40;;
77012;SDS011;67260;53.130;17.982;2023-02-15T02:01:09;119.30;;;46.80;;
77012;SDS011;67260;53.130;17.982;2023-02-15T02:06:13;135.60;;;52.10;;
77012;SDS011;67260;53.130;17.982;2023-02-15T02:08:41;125.40;;;48.10;;
77012;SDS011;67260;53.130;17.982;2023-02-15T02:11:12;133.20;;;52.00;;
77012;SDS011;67260;53.130;17.982;2023-02-15T02:13:40;128.60;;;53.40;;
77012;SDS011;67260;53.130;17.982;2023-02-15T02:16:12;121.90;;;49.10;;
77012;SDS011;67260;53.130;17.982;2023-02-15T02:27:34;147.80;;;55.60;;
77012;SDS011;67260;53.130;17.982;2023-02-15T02:35:30;124.00;;;46.60;;
77012;SDS011;67260;53.130;17.982;2023-02-15T02:38:07;122.10;;;46.90;;
77012;SDS011;67260;53.130;17.982;2023-02-15T02:40:49;126.70;;;45.70;;
77012;SDS011;67260;53.130;17.982;2023-02-15T02:46:46;126.70;;;45.10;;
77012;SDS011;67260;53.130;17.982;2023-02-15T02:49:32;127.50;;;46.80;;
77012;SDS011;67260;53.130;17.982;2023-02-15T02:52:02;108.90;;;41.40;;
77012;SDS011;67260;53.130;17.982;2023-02-15T02:54:33;116.20;;;44.10;;
77012;SDS011;67260;53.130;17.982;2023-02-15T02:57:03;113.00;;;43.50;;
77012;SDS011;67260;53.130;17.982;2023-02-15T02:59:33;106.20;;;42.40;;
77012;SDS011;67260;53.130;17.982;2023-02-15T03:02:11;96.00;;;38.90;;
77012;SDS011;67260;53.130;17.982;2023-02-15T03:04:45;109.60;;;42.30;;
77012;SDS011;67260;53.130;17.982;2023-02-15T03:07:16;90.00;;;36.50;;
77012;SDS011;67260;53.130;17.982;2023-02-15T03:09:49;81.20;;;32.70;;
77012;SDS011;67260;53.130;17.982;2023-02-15T03:12:20;81.00;;;32.90;;
77012;SDS011;67260;53.130;17.982;2023-02-15T03:14:51;66.10;;;27.90;;
77012;SDS011;67260;53.130;17.982;2023-02-15T03:17:21;54.50;;;23.50;;
77012;SDS011;67260;53.130;17.982;2023-02-15T03:19:50;62.50;;;25.70;;
77012;SDS011;67260;53.130;17.982;2023-02-15T03:22:24;58.80;;;24.90;;
77012;SDS011;67260;53.130;17.982;2023-02-15T03:25:12;54.00;;;23.20;;
77012;SDS011;67260;53.130;17.982;2023-02-15T03:27:48;55.80;;;23.60;;
77012;SDS011;67260;53.130;17.982;2023-02-15T03:30:20;52.00;;;23.40;;
77012;SDS011;67260;53.130;17.982;2023-02-15T03:32:48;45.90;;;20.80;;
77012;SDS011;67260;53.130;17.982;2023-02-15T03:35:18;54.40;;;23.00;;
77012;SDS011;67260;53.130;17.982;2023-02-15T03:37:57;54.40;;;23.00;;
77012;SDS011;67260;53.130;17.982;2023-02-15T03:40:37;55.20;;;22.30;;
77012;SDS011;67260;53.130;17.982;2023-02-15T03:48:44;53.30;;;23.20;;
77012;SDS011;67260;53.130;17.982;2023-02-15T03:51:17;54.60;;;21.80;;
77012;SDS011;67260;53.130;17.982;2023-02-15T03:54:04;50.20;;;21.80;;
77012;SDS011;67260;53.130;17.982;2023-02-15T03:56:37;50.80;;;20.80;;
77012;SDS011;67260;53.130;17.982;2023-02-15T03:59:06;46.80;;;21.30;;
77012;SDS011;67260;53.130;17.982;2023-02-15T04:01:54;45.10;;;19.30;;
77012;SDS011;67260;53.130;17.982;2023-02-15T04:04:45;53.30;;;19.30;;
77012;SDS011;67260;53.130;17.982;2023-02-15T04:07:13;42.70;;;17.30;;
77012;SDS011;67260;53.130;17.982;2023-02-15T04:09:40;43.00;;;17.60;;
77012;SDS011;67260;53.130;17.982;2023-02-15T04:12:45;44.30;;;19.10;;
77012;SDS011;67260;53.130;17.982;2023-02-15T04:17:57;42.50;;;18.70;;
77012;SDS011;67260;53.130;17.982;2023-02-15T04:23:09;43.40;;;16.30;;
77012;SDS011;67260;53.130;17.982;2023-02-15T04:25:55;45.00;;;17.70;;
77012;SDS011;67260;53.130;17.982;2023-02-15T04:28:21;46.00;;;18.70;;
77012;SDS011;67260;53.130;17.982;2023-02-15T04:30:48;50.30;;;18.80;;
77012;SDS011;67260;53.130;17.982;2023-02-15T04:33:15;40.20;;;18.70;;
77012;SDS011;67260;53.130;17.982;2023-02-15T04:35:43;42.00;;;18.90;;
77012;SDS011;67260;53.130;17.982;2023-02-15T04:38:11;48.00;;;20.70;;
77012;SDS011;67260;53.130;17.982;2023-02-15T04:40:38;44.50;;;20.10;;
77012;SDS011;67260;53.130;17.982;2023-02-15T04:43:05;40.50;;;16.70;;
77012;SDS011;67260;53.130;17.982;2023-02-15T04:45:32;43.50;;;19.90;;
77012;SDS011;67260;53.130;17.982;2023-02-15T04:47:58;40.90;;;18.50;;
77012;SDS011;67260;53.130;17.982;2023-02-15T04:50:25;43.90;;;19.30;;
77012;SDS011;67260;53.130;17.982;2023-02-15T04:52:52;45.30;;;19.80;;
77012;SDS011;67260;53.130;17.982;2023-02-15T04:55:19;37.30;;;18.20;;
77012;SDS011;67260;53.130;17.982;2023-02-15T04:57:46;48.10;;;20.00;;
77012;SDS011;67260;53.130;17.982;2023-02-15T05:00:13;47.30;;;19.70;;
77012;SDS011;67260;53.130;17.982;2023-02-15T05:02:40;50.20;;;20.80;;
77012;SDS011;67260;53.130;17.982;2023-02-15T05:07:35;44.50;;;20.40;;
77012;SDS011;67260;53.130;17.982;2023-02-15T05:10:02;51.30;;;23.00;;
77012;SDS011;67260;53.130;17.982;2023-02-15T05:12:29;46.30;;;21.30;;
77012;SDS011;67260;53.130;17.982;2023-02-15T05:17:22;50.70;;;22.80;;
77012;SDS011;67260;53.130;17.982;2023-02-15T05:19:49;47.10;;;20.10;;
77012;SDS011;67260;53.130;17.982;2023-02-15T05:22:16;46.20;;;19.90;;
77012;SDS011;67260;53.130;17.982;2023-02-15T05:24:42;53.30;;;21.60;;
77012;SDS011;67260;53.130;17.982;2023-02-15T05:27:28;48.00;;;20.60;;
77012;SDS011;67260;53.130;17.982;2023-02-15T05:30:13;42.60;;;19.70;;
77012;SDS011;67260;53.130;17.982;2023-02-15T05:32:40;39.60;;;19.20;;
77012;SDS011;67260;53.130;17.982;2023-02-15T05:35:07;46.40;;;20.60;;
77012;SDS011;67260;53.130;17.982;2023-02-15T05:37:34;50.60;;;22.00;;
77012;SDS011;67260;53.130;17.982;2023-02-15T05:40:00;44.60;;;19.30;;
77012;SDS011;67260;53.130;17.982;2023-02-15T05:42:27;48.90;;;21.60;;
77012;SDS011;67260;53.130;17.982;2023-02-15T05:47:20;45.70;;;19.40;;
77012;SDS011;67260;53.130;17.982;2023-02-15T05:49:47;47.30;;;22.00;;
77012;SDS011;67260;53.130;17.982;2023-02-15T05:52:14;49.30;;;20.50;;
77012;SDS011;67260;53.130;17.982;2023-02-15T05:57:07;51.90;;;20.40;;
77012;SDS011;67260;53.130;17.982;2023-02-15T05:59:34;49.80;;;21.60;;
77012;SDS011;67260;53.130;17.982;2023-02-15T06:02:00;50.20;;;21.70;;
77012;SDS011;67260;53.130;17.982;2023-02-15T06:06:54;39.90;;;17.20;;
77012;SDS011;67260;53.130;17.982;2023-02-15T06:09:20;46.40;;;19.60;;
77012;SDS011;67260;53.130;17.982;2023-02-15T06:11:47;45.50;;;18.70;;
77012;SDS011;67260;53.130;17.982;2023-02-15T06:14:14;44.00;;;20.20;;
77012;SDS011;67260;53.130;17.982;2023-02-15T06:19:07;42.70;;;19.00;;
77012;SDS011;67260;53.130;17.982;2023-02-15T06:21:34;40.20;;;18.40;;
77012;SDS011;67260;53.130;17.982;2023-02-15T06:26:27;40.00;;;17.40;;
77012;SDS011;67260;53.130;17.982;2023-02-15T06:31:20;39.20;;;17.90;;
77012;SDS011;67260;53.130;17.982;2023-02-15T06:36:14;39.70;;;18.50;;
77012;SDS011;67260;53.130;17.982;2023-02-15T06:38:40;40.10;;;19.70;;
77012;SDS011;67260;53.130;17.982;2023-02-15T06:41:07;39.00;;;18.50;;
77012;SDS011;67260;53.130;17.982;2023-02-15T06:46:00;39.40;;;18.00;;
77012;SDS011;67260;53.130;17.982;2023-02-15T06:48:27;47.50;;;20.50;;
77012;SDS011;67260;53.130;17.982;2023-02-15T06:50:54;47.40;;;21.90;;
77012;SDS011;67260;53.130;17.982;2023-02-15T06:53:21;44.00;;;21.20;;
77012;SDS011;67260;53.130;17.982;2023-02-15T06:55:47;47.70;;;23.30;;
77012;SDS011;67260;53.130;17.982;2023-02-15T07:00:41;43.10;;;18.80;;
77012;SDS011;67260;53.130;17.982;2023-02-15T07:03:07;45.30;;;18.20;;
77012;SDS011;67260;53.130;17.982;2023-02-15T07:08:01;42.30;;;17.60;;
77012;SDS011;67260;53.130;17.982;2023-02-15T07:10:27;39.10;;;17.70;;
77012;SDS011;67260;53.130;17.982;2023-02-15T07:15:21;39.80;;;17.20;;
77012;SDS011;67260;53.130;17.982;2023-02-15T07:17:48;41.50;;;18.80;;
77012;SDS011;67260;53.130;17.982;2023-02-15T07:20:17;44.40;;;19.90;;
77012;SDS011;67260;53.130;17.982;2023-02-15T07:22:48;42.50;;;20.40;;
77012;SDS011;67260;53.130;17.982;2023-02-15T07:25:16;45.00;;;20.00;;
77012;SDS011;67260;53.130;17.982;2023-02-15T07:27:43;50.10;;;23.60;;
77012;SDS011;67260;53.130;17.982;2023-02-15T07:30:12;48.00;;;22.90;;
77012;SDS011;67260;53.130;17.982;2023-02-15T07:32:41;46.70;;;22.60;;
77012;SDS011;67260;53.130;17.982;2023-02-15T07:35:27;44.30;;;19.90;;
77012;SDS011;67260;53.130;17.982;2023-02-15T07:37:53;48.50;;;21.40;;
77012;SDS011;67260;53.130;17.982;2023-02-15T07:40:20;45.80;;;20.70;;
77012;SDS011;67260;53.130;17.982;2023-02-15T07:42:49;46.70;;;23.30;;
77012;SDS011;67260;53.130;17.982;2023-02-15T07:45:21;46.90;;;23.60;;
77012;SDS011;67260;53.130;17.982;2023-02-15T07:47:48;49.80;;;23.50;;
77012;SDS011;67260;53.130;17.982;2023-02-15T07:50:15;43.90;;;20.90;;
77012;SDS011;67260;53.130;17.982;2023-02-15T07:52:42;44.50;;;20.40;;
77012;SDS011;67260;53.130;17.982;2023-02-15T07:55:09;42.50;;;19.60;;
77012;SDS011;67260;53.130;17.982;2023-02-15T07:57:42;42.50;;;20.00;;
77012;SDS011;67260;53.130;17.982;2023-02-15T08:00:11;44.20;;;19.40;;
77012;SDS011;67260;53.130;17.982;2023-02-15T08:02:39;37.50;;;18.40;;
77012;SDS011;67260;53.130;17.982;2023-02-15T08:05:06;38.40;;;18.60;;
77012;SDS011;67260;53.130;17.982;2023-02-15T08:07:33;40.20;;;20.00;;
77012;SDS011;67260;53.130;17.982;2023-02-15T08:12:26;46.00;;;21.70;;
77012;SDS011;67260;53.130;17.982;2023-02-15T08:14:54;36.20;;;18.70;;
77012;SDS011;67260;53.130;17.982;2023-02-15T08:17:20;39.20;;;18.70;;
77012;SDS011;67260;53.130;17.982;2023-02-15T08:22:14;32.00;;;15.50;;
77012;SDS011;67260;53.130;17.982;2023-02-15T08:24:41;31.70;;;15.60;;
77012;SDS011;67260;53.130;17.982;2023-02-15T08:29:36;32.00;;;15.10;;
77012;SDS011;67260;53.130;17.982;2023-02-15T08:32:05;35.70;;;15.60;;
77012;SDS011;67260;53.130;17.982;2023-02-15T08:34:35;24.70;;;12.20;;
77012;SDS011;67260;53.130;17.982;2023-02-15T08:37:04;32.80;;;15.10;;
77012;SDS011;67260;53.130;17.982;2023-02-15T08:39:32;29.80;;;14.30;;
77012;SDS011;67260;53.130;17.982;2023-02-15T08:41:59;31.00;;;14.80;;
77012;SDS011;67260;53.130;17.982;2023-02-15T08:44:26;23.70;;;10.80;;
77012;SDS011;67260;53.130;17.982;2023-02-15T08:46:53;27.00;;;13.30;;
77012;SDS011;67260;53.130;17.982;2023-02-15T08:49:21;26.30;;;13.90;;
77012;SDS011;67260;53.130;17.982;2023-02-15T08:51:48;25.60;;;13.10;;
77012;SDS011;67260;53.130;17.982;2023-02-15T08:54:17;28.30;;;14.80;;
77012;SDS011;67260;53.130;17.982;2023-02-15T08:56:46;33.70;;;17.10;;
77012;SDS011;67260;53.130;17.982;2023-02-15T08:59:16;26.50;;;14.80;;
77012;SDS011;67260;53.130;17.982;2023-02-15T09:01:45;35.30;;;16.90;;
77012;SDS011;67260;53.130;17.982;2023-02-15T09:04:12;34.20;;;17.80;;
77012;SDS011;67260;53.130;17.982;2023-02-15T09:06:40;27.40;;;13.50;;
77012;SDS011;67260;53.130;17.982;2023-02-15T09:09:08;20.30;;;10.70;;
77012;SDS011;67260;53.130;17.982;2023-02-15T09:11:36;20.90;;;11.00;;
77012;SDS011;67260;53.130;17.982;2023-02-15T09:14:05;22.80;;;13.10;;
77012;SDS011;67260;53.130;17.982;2023-02-15T09:16:40;23.20;;;11.90;;
77012;SDS011;67260;53.130;17.982;2023-02-15T09:19:08;31.70;;;16.60;;
77012;SDS011;67260;53.130;17.982;2023-02-15T09:21:35;15.80;;;8.70;;
77012;SDS011;67260;53.130;17.982;2023-02-15T09:24:05;20.60;;;10.30;;
77012;SDS011;67260;53.130;17.982;2023-02-15T09:26:34;20.30;;;11.50;;
77012;SDS011;67260;53.130;17.982;2023-02-15T09:29:03;18.40;;;11.40;;
77012;SDS011;67260;53.130;17.982;2023-02-15T09:31:31;22.40;;;12.00;;
77012;SDS011;67260;53.130;17.982;2023-02-15T09:34:00;20.10;;;10.80;;
77012;SDS011;67260;53.130;17.982;2023-02-15T09:36:34;20.70;;;10.50;;
77012;SDS011;67260;53.130;17.982;2023-02-15T09:39:12;18.50;;;10.80;;
77012;SDS011;67260;53.130;17.982;2023-02-15T09:53:27;21.70;;;11.70;;
77012;SDS011;67260;53.130;17.982;2023-02-15T09:56:15;18.40;;;10.50;;
77012;SDS011;67260;53.130;17.982;2023-02-15T10:06:40;29.70;;;15.00;;
77012;SDS011;67260;53.130;17.982;2023-02-15T10:14:52;18.50;;;11.30;;
77012;SDS011;67260;53.130;17.982;2023-02-15T10:27:52;25.50;;;14.30;;
77012;SDS011;67260;53.130;17.982;2023-02-15T10:33:00;26.10;;;13.30;;
77012;SDS011;67260;53.130;17.982;2023-02-15T10:35:49;22.40;;;11.60;;
77012;SDS011;67260;53.130;17.982;2023-02-15T10:38:42;20.60;;;12.60;;
77012;SDS011;67260;53.130;17.982;2023-02-15T10:58:23;27.90;;;14.10;;
77012;SDS011;67260;53.130;17.982;2023-02-15T11:07:02;43.00;;;21.60;;
77012;SDS011;67260;53.130;17.982;2023-02-15T11:09:46;34.40;;;18.70;;
77012;SDS011;67260;53.130;17.982;2023-02-15T11:12:18;35.60;;;19.30;;
77012;SDS011;67260;53.130;17.982;2023-02-15T11:14:50;42.60;;;22.90;;
77012;SDS011;67260;53.130;17.982;2023-02-15T11:17:25;74.50;;;32.80;;
77012;SDS011;67260;53.130;17.982;2023-02-15T11:20:27;94.70;;;39.00;;
77012;SDS011;67260;53.130;17.982;2023-02-15T11:23:15;96.90;;;39.90;;
77012;SDS011;67260;53.130;17.982;2023-02-15T11:25:45;80.90;;;36.40;;
77012;SDS011;67260;53.130;17.982;2023-02-15T11:28:20;61.10;;;28.00;;
77012;SDS011;67260;53.130;17.982;2023-02-15T11:30:54;38.40;;;20.40;;
77012;SDS011;67260;53.130;17.982;2023-02-15T11:33:25;77.30;;;34.40;;
77012;SDS011;67260;53.130;17.982;2023-02-15T11:38:31;60.60;;;28.70;;
77012;SDS011;67260;53.130;17.982;2023-02-15T11:43:28;65.40;;;31.00;;
77012;SDS011;67260;53.130;17.982;2023-02-15T11:45:57;97.80;;;42.30;;
77012;SDS011;67260;53.130;17.982;2023-02-15T11:50:50;68.30;;;34.50;;
77012;SDS011;67260;53.130;17.982;2023-02-15T11:53:18;65.60;;;32.30;;
77012;SDS011;67260;53.130;17.982;2023-02-15T11:55:54;61.00;;;32.50;;
77012;SDS011;67260;53.130;17.982;2023-02-15T11:58:29;47.90;;;27.50;;
77012;SDS011;67260;53.130;17.982;2023-02-15T12:04:09;37.40;;;20.20;;
77012;SDS011;67260;53.130;17.982;2023-02-15T12:06:49;29.70;;;16.30;;
77012;SDS011;67260;53.130;17.982;2023-02-15T12:09:29;39.20;;;21.40;;
77012;SDS011;67260;53.130;17.982;2023-02-15T12:14:53;35.30;;;20.00;;
77012;SDS011;67260;53.130;17.982;2023-02-15T12:17:25;39.30;;;21.30;;
77012;SDS011;67260;53.130;17.982;2023-02-15T12:19:57;40.30;;;22.80;;
77012;SDS011;67260;53.130;17.982;2023-02-15T12:22:31;38.30;;;21.20;;
77012;SDS011;67260;53.130;17.982;2023-02-15T12:25:04;36.20;;;20.50;;
77012;SDS011;67260;53.130;17.982;2023-02-15T12:27:47;44.10;;;24.30;;
77012;SDS011;67260;53.130;17.982;2023-02-15T12:30:18;45.10;;;24.40;;
77012;SDS011;67260;53.130;17.982;2023-02-15T12:32:54;41.10;;;23.40;;
77012;SDS011;67260;53.130;17.982;2023-02-15T12:35:29;51.60;;;25.80;;
77012;SDS011;67260;53.130;17.982;2023-02-15T12:38:03;43.00;;;24.80;;
77012;SDS011;67260;53.130;17.982;2023-02-15T12:40:56;38.50;;;22.00;;
77012;SDS011;67260;53.130;17.982;2023-02-15T12:43:32;40.50;;;21.50;;
77012;SDS011;67260;53.130;17.982;2023-02-15T12:46:12;41.20;;;22.50;;
77012;SDS011;67260;53.130;17.982;2023-02-15T12:48:40;39.60;;;22.10;;
77012;SDS011;67260;53.130;17.982;2023-02-15T12:51:08;51.50;;;26.50;;
77012;SDS011;67260;53.130;17.982;2023-02-15T12:53:39;45.00;;;25.10;;
77012;SDS011;67260;53.130;17.982;2023-02-15T12:56:07;55.80;;;27.80;;
77012;SDS011;67260;53.130;17.982;2023-02-15T12:58:36;52.90;;;28.00;;
77012;SDS011;67260;53.130;17.982;2023-02-15T13:06:33;61.50;;;27.80;;
77012;SDS011;67260;53.130;17.982;2023-02-15T13:12:26;48.80;;;25.80;;
77012;SDS011;67260;53.130;17.982;2023-02-15T13:14:57;51.10;;;26.80;;
77012;SDS011;67260;53.130;17.982;2023-02-15T13:17:26;59.40;;;29.00;;
77012;SDS011;67260;53.130;17.982;2023-02-15T13:19:57;53.10;;;28.10;;
77012;SDS011;67260;53.130;17.982;2023-02-15T13:25:10;79.40;;;36.50;;
77012;SDS011;67260;53.130;17.982;2023-02-15T13:27:41;49.00;;;24.10;;
77012;SDS011;67260;53.130;17.982;2023-02-15T13:30:16;58.40;;;28.70;;
77012;SDS011;67260;53.130;17.982;2023-02-15T13:33:05;61.40;;;28.50;;
77012;SDS011;67260;53.130;17.982;2023-02-15T13:36:21;46.70;;;22.60;;
77012;SDS011;67260;53.130;17.982;2023-02-15T13:44:18;73.60;;;37.30;;
77012;SDS011;67260;53.130;17.982;2023-02-15T13:52:21;39.30;;;18.20;;
77012;SDS011;67260;53.130;17.982;2023-02-15T14:02:58;51.90;;;26.80;;
77012;SDS011;67260;53.130;17.982;2023-02-15T14:06:08;54.70;;;28.20;;
77012;SDS011;67260;53.130;17.982;2023-02-15T14:08:56;71.30;;;33.50;;
77012;SDS011;67260;53.130;17.982;2023-02-15T14:11:33;59.00;;;29.40;;
77012;SDS011;67260;53.130;17.982;2023-02-15T14:14:23;47.80;;;25.50;;
77012;SDS011;67260;53.130;17.982;2023-02-15T14:21:55;54.30;;;27.20;;
77012;SDS011;67260;53.130;17.982;2023-02-15T14:27:24;49.10;;;23.80;;
77012;SDS011;67260;53.130;17.982;2023-02-15T14:30:03;55.20;;;26.20;;
77012;SDS011;67260;53.130;17.982;2023-02-15T14:32:41;56.00;;;26.50;;
77012;SDS011;67260;53.130;17.982;2023-02-15T14:35:15;60.80;;;27.90;;
77012;SDS011;67260;53.130;17.982;2023-02-15T14:40:32;62.00;;;33.10;;
77012;SDS011;67260;53.130;17.982;2023-02-15T14:49:03;43.50;;;21.30;;
77012;SDS011;67260;53.130;17.982;2023-02-15T14:54:10;51.10;;;25.00;;
77012;SDS011;67260;53.130;17.982;2023-02-15T15:04:45;83.00;;;38.70;;
77012;SDS011;67260;53.130;17.982;2023-02-15T15:10:23;59.20;;;28.60;;
77012;SDS011;67260;53.130;17.982;2023-02-15T15:13:51;39.50;;;18.60;;
77012;SDS011;67260;53.130;17.982;2023-02-15T15:19:03;35.70;;;17.50;;
77012;SDS011;67260;53.130;17.982;2023-02-15T15:21:54;45.80;;;23.90;;
77012;SDS011;67260;53.130;17.982;2023-02-15T15:33:04;53.60;;;25.00;;
77012;SDS011;67260;53.130;17.982;2023-02-15T15:35:35;38.20;;;19.00;;
77012;SDS011;67260;53.130;17.982;2023-02-15T15:49:15;43.30;;;19.30;;
77012;SDS011;67260;53.130;17.982;2023-02-15T15:51:44;62.90;;;24.90;;
77012;SDS011;67260;53.130;17.982;2023-02-15T15:54:16;67.70;;;28.10;;
77012;SDS011;67260;53.130;17.982;2023-02-15T15:56:47;46.50;;;20.50;;
77012;SDS011;67260;53.130;17.982;2023-02-15T15:59:19;40.90;;;18.90;;
77012;SDS011;67260;53.130;17.982;2023-02-15T16:01:50;43.10;;;19.60;;
77012;SDS011;67260;53.130;17.982;2023-02-15T16:04:25;41.00;;;18.50;;
77012;SDS011;67260;53.130;17.982;2023-02-15T16:06:55;46.70;;;21.90;;
77012;SDS011;67260;53.130;17.982;2023-02-15T16:09:24;50.10;;;23.00;;
77012;SDS011;67260;53.130;17.982;2023-02-15T16:11:53;48.70;;;21.50;;
77012;SDS011;67260;53.130;17.982;2023-02-15T16:14:26;50.50;;;21.20;;
77012;SDS011;67260;53.130;17.982;2023-02-15T16:16:54;49.00;;;21.70;;
77012;SDS011;67260;53.130;17.982;2023-02-15T16:19:25;41.20;;;18.50;;
77012;SDS011;67260;53.130;17.982;2023-02-15T16:21:57;39.30;;;18.10;;
77012;SDS011;67260;53.130;17.982;2023-02-15T16:24:29;43.00;;;19.50;;
77012;SDS011;67260;53.130;17.982;2023-02-15T16:32:45;41.00;;;19.20;;
77012;SDS011;67260;53.130;17.982;2023-02-15T16:37:45;56.90;;;23.80;;
77012;SDS011;67260;53.130;17.982;2023-02-15T16:40:25;51.60;;;22.20;;
77012;SDS011;67260;53.130;17.982;2023-02-15T16:43:06;55.30;;;23.10;;
77012;SDS011;67260;53.130;17.982;2023-02-15T16:45:40;55.20;;;24.20;;
77012;SDS011;67260;53.130;17.982;2023-02-15T16:48:18;59.60;;;24.40;;
77012;SDS011;67260;53.130;17.982;2023-02-15T16:50:53;64.70;;;28.00;;
77012;SDS011;67260;53.130;17.982;2023-02-15T16:53:28;63.70;;;26.00;;
77012;SDS011;67260;53.130;17.982;2023-02-15T16:56:02;56.70;;;23.10;;
77012;SDS011;67260;53.130;17.982;2023-02-15T16:58:38;59.40;;;25.90;;
77012;SDS011;67260;53.130;17.982;2023-02-15T17:01:10;62.20;;;24.90;;
77012;SDS011;67260;53.130;17.982;2023-02-15T17:03:39;63.70;;;25.40;;
77012;SDS011;67260;53.130;17.982;2023-02-15T17:06:24;52.50;;;22.80;;
77012;SDS011;67260;53.130;17.982;2023-02-15T17:08:52;61.80;;;25.80;;
77012;SDS011;67260;53.130;17.982;2023-02-15T17:11:40;68.20;;;29.10;;
77012;SDS011;67260;53.130;17.982;2023-02-15T17:16:49;66.00;;;28.00;;
77012;SDS011;67260;53.130;17.982;2023-02-15T17:19:26;60.50;;;27.20;;
77012;SDS011;67260;53.130;17.982;2023-02-15T17:21:58;57.70;;;23.50;;
77012;SDS011;67260;53.130;17.982;2023-02-15T17:24:38;62.40;;;26.20;;
77012;SDS011;67260;53.130;17.982;2023-02-15T17:27:11;62.10;;;26.30;;
77012;SDS011;67260;53.130;17.982;2023-02-15T17:29:47;62.00;;;27.60;;
77012;SDS011;67260;53.130;17.982;2023-02-15T17:32:19;62.00;;;26.60;;
77012;SDS011;67260;53.130;17.982;2023-02-15T17:39:54;70.20;;;29.30;;
77012;SDS011;67260;53.130;17.982;2023-02-15T17:42:21;65.70;;;26.40;;
77012;SDS011;67260;53.130;17.982;2023-02-15T17:47:17;63.80;;;25.40;;
77012;SDS011;67260;53.130;17.982;2023-02-15T17:49:46;56.80;;;24.10;;
77012;SDS011;67260;53.130;17.982;2023-02-15T17:52:15;63.20;;;26.00;;
77012;SDS011;67260;53.130;17.982;2023-02-15T17:54:43;64.50;;;26.70;;
77012;SDS011;67260;53.130;17.982;2023-02-15T17:57:29;63.90;;;26.40;;
77012;SDS011;67260;53.130;17.982;2023-02-15T17:59:56;64.60;;;26.20;;
77012;SDS011;67260;53.130;17.982;2023-02-15T18:02:42;47.20;;;20.30;;
77012;SDS011;67260;53.130;17.982;2023-02-15T18:05:28;55.00;;;23.30;;
77012;SDS011;67260;53.130;17.982;2023-02-15T18:08:15;71.10;;;28.20;;
77012;SDS011;67260;53.130;17.982;2023-02-15T18:11:02;69.00;;;28.00;;
77012;SDS011;67260;53.130;17.982;2023-02-15T18:13:48;74.50;;;29.20;;
77012;SDS011;67260;53.130;17.982;2023-02-15T18:16:21;72.20;;;28.60;;
77012;SDS011;67260;53.130;17.982;2023-02-15T18:18:52;67.70;;;27.00;;
77012;SDS011;67260;53.130;17.982;2023-02-15T18:21:19;65.90;;;25.50;;
77012;SDS011;67260;53.130;17.982;2023-02-15T18:23:46;67.40;;;26.30;;
77012;SDS011;67260;53.130;17.982;2023-02-15T18:26:16;60.70;;;25.70;;
77012;SDS011;67260;53.130;17.982;2023-02-15T18:28:46;71.00;;;27.50;;
77012;SDS011;67260;53.130;17.982;2023-02-15T18:31:14;71.80;;;28.20;;
77012;SDS011;67260;53.130;17.982;2023-02-15T18:33:42;70.30;;;29.10;;
77012;SDS011;67260;53.130;17.982;2023-02-15T18:36:19;70.60;;;27.00;;
77012;SDS011;67260;53.130;17.982;2023-02-15T18:38:56;72.90;;;27.00;;
77012;SDS011;67260;53.130;17.982;2023-02-15T18:41:23;67.30;;;27.80;;
77012;SDS011;67260;53.130;17.982;2023-02-15T18:43:50;71.30;;;27.20;;
77012;SDS011;67260;53.130;17.982;2023-02-15T18:46:19;69.30;;;26.40;;
77012;SDS011;67260;53.130;17.982;2023-02-15T18:48:46;70.00;;;26.70;;
77012;SDS011;67260;53.130;17.982;2023-02-15T18:53:48;78.00;;;29.70;;
77012;SDS011;67260;53.130;17.982;2023-02-15T18:56:17;80.10;;;31.40;;